ADDS METAR Data

Data at: 2307 UTC 15 Aug 2018

METAR for:KATL (Atlanta/Hartsfield-J, GA, US)
Text:KATL 152252Z 23006KT 10SM FEW060TCU SCT250 32/18 A3008 RMK AO2 SLP175 TCU OHD T03170183
Temperature: 31.7°C ( 89°F)
Dewpoint: 18.3°C ( 65°F) [RH = 45%]
Pressure (altimeter):30.08 inches Hg (1018.7 mb) [Sea level pressure: 1017.5 mb]
Winds:from the SW (230 degrees) at 7 MPH (6 knots; 3.1 m/s)
Visibility:10 or more sm (16+ km)
Ceiling:at least 12,000 feet AGL
Clouds: few clouds at 6000 feet AGL, scattered clouds at 25000 feet AGL